Time;durP1;ratioP1;P1;durP2;ratioP2;P2;SDS_P1;SDS_P2;PMS_P1;PMS_P2;Temp;Humidity;BMP_temperature;BMP_pressure;BME280_temperature;BME280_humidity;BME280_pressure;Samples;Min_cycle;Max_cycle;Signal;HPM_P1;HPM_P2
2021/05/16 00:01:38;;;;;;;23.33;13.43;;;;;;;13.18;75.17;93193.09;5011357;28;20032;-72
2021/05/16 00:04:04;;;;;;;18.95;13.98;;;;;;;13.23;74.89;93190.94;5011440;28;20404;-72
2021/05/16 00:06:29;;;;;;;20.73;13.60;;;;;;;13.24;74.73;93194.38;4993847;28;20030;-73
2021/05/16 00:08:54;;;;;;;18.05;13.60;;;;;;;13.21;74.85;93192.41;4993722;28;20500;-72
2021/05/16 00:11:20;;;;;;;21.17;13.40;;;;;;;13.26;74.80;93194.81;5011050;28;20030;-72
2021/05/16 00:13:45;;;;;;;29.63;14.25;;;;;;;13.23;74.31;93198.19;4993513;28;20362;-73
2021/05/16 00:16:11;;;;;;;19.25;14.60;;;;;;;13.20;74.33;93201.56;5011375;28;20527;-73
2021/05/16 00:18:36;;;;;;;19.80;12.93;;;;;;;13.19;74.08;93200.78;5011327;28;20481;-73
2021/05/16 00:21:02;;;;;;;19.42;13.68;;;;;;;13.19;74.67;93200.78;5010897;28;20417;-73
2021/05/16 00:23:28;;;;;;;23.33;14.73;;;;;;;13.21;74.78;93200.44;5010710;28;20029;-72
2021/05/16 00:25:53;;;;;;;22.08;15.88;;;;;;;13.18;74.60;93211.81;4993288;28;20038;-73
2021/05/16 00:28:19;;;;;;;21.55;14.82;;;;;;;13.13;74.95;93201.38;4992734;28;20026;-73
2021/05/16 00:30:44;;;;;;;20.15;15.60;;;;;;;13.09;75.12;93205.84;4993057;28;20512;-73
2021/05/16 00:33:10;;;;;;;19.90;14.38;;;;;;;13.11;75.19;93206.28;4993201;28;20042;-73
2021/05/16 00:35:36;;;;;;;22.20;15.27;;;;;;;13.12;75.20;93213.97;4993398;28;20030;-73
2021/05/16 00:38:03;;;;;;;20.75;13.93;;;;;;;13.14;75.13;93205.59;5010944;28;20117;-73
2021/05/16 00:40:30;;;;;;;20.30;14.52;;;;;;;13.10;75.09;93202.06;5010823;28;20497;-71
2021/05/16 00:42:56;;;;;;;22.85;14.43;;;;;;;13.09;74.95;93208.53;5010964;28;20026;-71
2021/05/16 00:45:25;;;;;;;23.02;15.63;;;;;;;13.10;74.92;93207.41;5002132;28;20021;-71
2021/05/16 00:47:56;;;;;;;20.75;15.18;;;;;;;13.13;75.15;93202.16;5013072;28;20107;-70
2021/05/16 00:50:24;;;;;;;21.30;14.63;;;;;;;13.09;74.89;93200.50;4994648;28;20041;-77
2021/05/16 00:52:50;;;;;;;16.02;11.82;;;;;;;13.07;74.53;93197.38;4993394;28;20026;-77
2021/05/16 00:55:17;;;;;;;20.65;11.77;;;;;;;13.07;74.27;93197.38;4993449;28;20100;-77
2021/05/16 00:57:42;;;;;;;15.48;10.75;;;;;;;13.09;73.78;93198.63;4993085;28;20033;-77
2021/05/16 01:00:11;;;;;;;15.52;12.00;;;;;;;13.08;74.01;93197.06;4993570;28;20444;-78
2021/05/16 01:02:37;;;;;;;15.07;10.65;;;;;;;13.10;73.94;93202.06;4993386;28;20029;-76
2021/05/16 01:05:03;;;;;;;19.17;8.52;;;;;;;13.09;73.72;93189.78;4993271;28;20034;-77
2021/05/16 01:07:29;;;;;;;7.70;5.03;;;;;;;12.93;71.53;93197.81;4993026;28;20029;-77
2021/05/16 01:09:55;;;;;;;6.80;3.67;;;;;;;12.95;70.49;93193.69;5009948;28;20451;-77
2021/05/16 01:12:21;;;;;;;7.43;4.38;;;;;;;12.91;71.29;93200.06;5010451;28;20030;-77
2021/05/16 01:14:48;;;;;;;9.50;3.30;;;;;;;12.84;70.45;93200.63;4993118;28;20018;-77
2021/05/16 01:17:14;;;;;;;7.57;4.40;;;;;;;12.83;71.19;93199.09;4992838;28;20083;-76
2021/05/16 01:19:40;;;;;;;4.80;3.60;;;;;;;12.88;71.54;93190.81;4992645;28;20386;-76
2021/05/16 01:22:07;;;;;;;5.13;3.95;;;;;;;12.96;72.71;93195.22;4992213;28;20400;-76
2021/05/16 01:24:33;;;;;;;11.50;4.35;;;;;;;12.94;72.48;93184.09;5010316;28;20424;-78
2021/05/16 01:26:59;;;;;;;6.60;3.85;;;;;;;13.01;72.80;93173.59;4992343;28;20032;-77
2021/05/16 01:29:26;;;;;;;5.45;3.72;;;;;;;13.05;72.77;93171.00;4992701;28;20472;-78
2021/05/16 01:31:52;;;;;;;6.82;3.75;;;;;;;13.08;72.92;93174.88;4992904;28;20084;-77
2021/05/16 01:34:18;;;;;;;4.32;3.58;;;;;;;13.14;72.97;93170.81;4993285;28;20040;-77
2021/05/16 01:36:43;;;;;;;7.10;3.97;;;;;;;13.13;72.83;93163.94;4993275;28;20030;-77
2021/05/16 01:39:12;;;;;;;4.82;3.30;;;;;;;13.14;72.69;93171.59;5010776;28;20025;-77
2021/05/16 01:41:38;;;;;;;4.75;2.85;;;;;;;13.20;72.92;93164.09;4995334;28;20017;-78
2021/05/16 01:44:06;;;;;;;9.30;3.50;;;;;;;13.20;73.26;93170.22;4992606;28;20053;-78
2021/05/16 01:46:31;;;;;;;4.10;2.88;;;;;;;13.22;73.42;93172.53;4992988;28;20060;-77
2021/05/16 01:48:58;;;;;;;8.20;3.83;;;;;;;13.21;73.20;93166.44;4992609;28;20147;-77
2021/05/16 01:51:24;;;;;;;13.90;4.65;;;;;;;13.22;73.21;93176.00;4992575;28;20059;-77
2021/05/16 01:53:50;;;;;;;10.25;6.47;;;;;;;13.25;73.40;93163.84;5010044;28;20590;-77
2021/05/16 01:56:26;;;;;;;9.90;6.38;;;;;;;13.25;73.35;93171.88;5010221;28;20065;-77
2021/05/16 01:58:53;;;;;;;16.83;8.43;;;;;;;13.28;73.30;93170.38;4992155;28;20026;-77
2021/05/16 02:01:18;;;;;;;11.27;8.05;;;;;;;13.26;73.39;93162.69;4992766;28;20025;-77
2021/05/16 02:03:45;;;;;;;17.98;8.93;;;;;;;13.30;73.42;93173.53;4992269;28;20026;-77
2021/05/16 02:06:13;;;;;;;11.07;8.50;;;;;;;13.26;73.48;93173.41;4995876;28;20477;-77
2021/05/16 02:08:40;;;;;;;12.57;9.02;;;;;;;13.26;73.66;93173.41;5012067;28;20060;-77
2021/05/16 02:11:06;;;;;;;13.32;8.02;;;;;;;13.23;73.66;93180.22;4993398;28;20084;-77
2021/05/16 02:13:35;;;;;;;11.52;8.35;;;;;;;13.22;73.68;93184.03;4992197;28;20061;-77
2021/05/16 02:16:00;;;;;;;14.20;8.13;;;;;;;13.26;73.99;93186.78;4992318;28;20050;-77
2021/05/16 02:18:26;;;;;;;11.65;8.38;;;;;;;13.27;73.76;93185.69;4992214;28;20382;-77
2021/05/16 02:20:51;;;;;;;11.95;7.80;;;;;;;13.27;73.49;93179.53;5010011;28;20037;-78
2021/05/16 02:23:17;;;;;;;11.05;7.85;;;;;;;13.28;73.79;93189.91;5013853;28;20026;-78
2021/05/16 02:25:42;;;;;;;10.73;7.05;;;;;;;13.32;73.86;93187.34;4996104;28;20080;-78
2021/05/16 02:28:07;;;;;;;8.68;5.18;;;;;;;13.22;71.92;93183.25;4996330;28;20040;-78
2021/05/16 02:30:34;;;;;;;8.27;4.13;;;;;;;13.13;71.72;93183.44;4995889;28;20024;-78
2021/05/16 02:32:59;;;;;;;5.97;3.65;;;;;;;13.05;71.57;93181.69;4998397;28;20511;-78
2021/05/16 02:35:25;;;;;;;9.48;3.40;;;;;;;13.01;71.42;93184.28;5015244;28;20025;-78
2021/05/16 02:37:50;;;;;;;5.38;2.65;;;;;;;12.96;71.60;93178.41;5015510;28;20040;-78
2021/05/16 02:40:16;;;;;;;9.18;3.60;;;;;;;12.92;71.60;93178.31;4997401;28;20068;-78
2021/05/16 02:42:42;;;;;;;6.55;2.90;;;;;;;12.78;71.86;93191.31;4996004;28;20461;-77
2021/05/16 02:45:08;;;;;;;7.40;3.03;;;;;;;12.76;71.15;93189.00;4995884;28;20116;-79
2021/05/16 02:47:34;;;;;;;4.93;2.50;;;;;;;12.76;71.48;93189.00;4998857;28;20060;-79
2021/05/16 02:49:59;;;;;;;8.15;2.55;;;;;;;12.80;71.46;93191.75;4997179;28;20017;-78
2021/05/16 02:52:24;;;;;;;7.85;2.70;;;;;;;12.80;71.71;93189.88;4995629;28;20114;-78
2021/05/16 02:54:50;;;;;;;4.97;2.40;;;;;;;12.82;71.47;93186.84;5013291;28;20026;-78
2021/05/16 02:57:15;;;;;;;8.15;2.78;;;;;;;12.84;71.17;93201.44;4995881;28;20038;-78
2021/05/16 02:59:42;;;;;;;5.78;2.65;;;;;;;12.83;71.33;93201.78;4996036;28;20029;-78
2021/05/16 03:02:07;;;;;;;7.68;2.50;;;;;;;12.81;71.14;93204.78;4995350;28;20081;-78
2021/05/16 03:04:33;;;;;;;5.10;2.25;;;;;;;12.82;70.78;93206.34;4995896;28;20113;-78
2021/05/16 03:06:58;;;;;;;6.03;2.53;;;;;;;12.81;70.67;93206.69;5011863;28;20037;-78
2021/05/16 03:09:24;;;;;;;6.60;2.83;;;;;;;12.82;71.32;93205.56;5013102;28;20036;-78
2021/05/16 03:11:49;;;;;;;9.52;3.00;;;;;;;12.77;72.40;93213.84;4995642;28;20029;-79
2021/05/16 03:14:15;;;;;;;8.05;2.80;;;;;;;12.78;72.94;93210.84;5013024;28;20028;-79
2021/05/16 03:16:41;;;;;;;9.05;3.13;;;;;;;12.78;71.70;93220.72;4995047;28;20069;-79
2021/05/16 03:19:06;;;;;;;12.65;2.47;;;;;;;12.76;70.46;93214.94;5012697;28;20080;-79
2021/05/16 03:21:32;;;;;;;7.80;2.38;;;;;;;12.73;69.93;93215.66;4995452;28;20028;-79
2021/05/16 03:23:57;;;;;;;4.88;2.35;;;;;;;12.69;70.00;93212.09;4995373;28;20022;-79
2021/05/16 03:26:24;;;;;;;4.40;2.35;;;;;;;12.59;70.47;93216.03;4995044;28;20061;-79
2021/05/16 03:28:50;;;;;;;5.43;2.55;;;;;;;12.52;71.27;93219.31;4995340;28;20037;-79
2021/05/16 03:31:15;;;;;;;6.53;2.53;;;;;;;12.48;71.06;93210.41;5010973;28;20034;-79
2021/05/16 03:33:41;;;;;;;13.90;2.60;;;;;;;12.44;71.11;93214.88;4993493;28;20040;-79
2021/05/16 03:36:06;;;;;;;5.72;2.38;;;;;;;12.50;69.92;93215.41;4995072;28;20041;-79
2021/05/16 03:38:32;;;;;;;10.35;3.13;;;;;;;12.48;70.48;93205.06;5012552;28;20030;-79
2021/05/16 03:40:57;;;;;;;5.38;2.38;;;;;;;12.46;70.09;93212.63;4995051;28;20022;-79
2021/05/16 03:43:23;;;;;;;9.63;2.58;;;;;;;12.44;70.42;93199.59;5012418;28;20061;-79
2021/05/16 03:45:49;;;;;;;6.65;2.42;;;;;;;12.42;70.61;93207.19;5011044;28;20037;-79
2021/05/16 03:48:14;;;;;;;3.70;2.35;;;;;;;12.45;70.87;93203.81;4995040;28;20026;-79
2021/05/16 03:50:40;;;;;;;11.02;2.50;;;;;;;12.45;70.04;93211.06;4994768;28;20123;-79
2021/05/16 03:53:06;;;;;;;6.05;3.10;;;;;;;12.51;70.21;93211.63;4994541;28;20113;-79
2021/05/16 03:55:31;;;;;;;10.68;2.58;;;;;;;12.57;70.43;93211.03;5011897;28;20354;-79
2021/05/16 03:57:57;;;;;;;7.30;2.10;;;;;;;12.57;68.23;93211.03;4994743;28;20017;-79
2021/05/16 04:00:23;;;;;;;10.50;3.58;;;;;;;12.55;69.62;93213.25;5011953;28;20493;-79
2021/05/16 04:02:48;;;;;;;6.97;2.50;;;;;;;12.57;69.60;93219.03;5012127;28;20022;-78
2021/05/16 04:05:15;;;;;;;6.78;2.25;;;;;;;12.56;70.04;93214.81;4994367;28;20493;-79
2021/05/16 04:07:40;;;;;;;6.43;2.63;;;;;;;12.61;69.78;93211.13;5011887;28;20496;-78
2021/05/16 04:10:07;;;;;;;11.98;2.92;;;;;;;12.64;69.32;93207.78;4994385;28;20037;-78
2021/05/16 04:12:33;;;;;;;2.97;1.67;;;;;;;12.62;68.40;93207.34;4993723;28;20072;-78
2021/05/16 04:14:58;;;;;;;4.95;2.35;;;;;;;12.68;68.70;93208.66;4994079;28;20456;-79
2021/05/16 04:17:24;;;;;;;7.15;1.88;;;;;;;12.74;68.93;93211.84;4994158;28;20077;-79
2021/05/16 04:19:49;;;;;;;8.40;2.17;;;;;;;12.73;69.05;93215.66;4994179;28;20022;-79
2021/05/16 04:22:15;;;;;;;6.78;2.13;;;;;;;12.75;68.79;93218.75;4994288;28;20018;-79
2021/05/16 04:24:40;;;;;;;9.20;2.50;;;;;;;12.72;67.88;93216.75;4993850;28;20022;-77
2021/05/16 04:27:06;;;;;;;8.15;2.20;;;;;;;12.70;68.01;93229.69;5011494;28;20029;-77
2021/05/16 04:29:32;;;;;;;10.45;2.20;;;;;;;12.76;67.94;93215.75;5010136;28;20026;-77
2021/05/16 04:31:57;;;;;;;5.93;1.88;;;;;;;12.75;67.44;93224.09;4993508;28;20081;-77
2021/05/16 04:34:23;;;;;;;6.38;1.95;;;;;;;12.77;68.25;93227.97;4983523;28;20061;-77
2021/05/16 04:36:48;;;;;;;5.18;2.25;;;;;;;12.79;67.70;93233.00;4975521;28;20038;-77
2021/05/16 04:39:14;;;;;;;8.93;2.38;;;;;;;12.75;67.53;93234.78;5011420;28;20037;-77
2021/05/16 04:41:40;;;;;;;6.55;2.47;;;;;;;12.80;67.53;93232.66;5009967;28;20030;-77
2021/05/16 04:44:05;;;;;;;7.68;2.35;;;;;;;12.85;68.35;93226.28;4993248;28;20034;-78
2021/05/16 04:46:31;;;;;;;5.32;2.20;;;;;;;12.91;68.27;93227.59;4993775;28;20030;-76
2021/05/16 04:48:56;;;;;;;8.13;2.15;;;;;;;12.91;67.69;93234.84;4998927;28;20036;-77
2021/05/16 04:51:22;;;;;;;10.27;2.00;;;;;;;12.93;67.46;93232.59;4993802;28;20026;-77
2021/05/16 04:53:47;;;;;;;7.10;1.98;;;;;;;12.94;66.58;93228.78;4993789;28;20473;-77
2021/05/16 04:56:13;;;;;;;5.90;2.00;;;;;;;12.96;67.40;93224.66;4993605;28;20409;-79
2021/05/16 04:58:38;;;;;;;5.38;1.90;;;;;;;12.95;67.72;93235.72;4993397;28;20029;-77
2021/05/16 05:01:05;;;;;;;7.90;2.10;;;;;;;13.02;67.78;93239.31;5010777;28;20499;-77
2021/05/16 05:03:31;;;;;;;7.38;2.13;;;;;;;13.03;66.65;93224.84;5009534;28;20021;-77
2021/05/16 05:05:57;;;;;;;4.53;1.83;;;;;;;13.04;67.07;93234.41;4993265;28;20410;-77
2021/05/16 05:08:25;;;;;;;5.70;2.10;;;;;;;13.12;67.39;93240.72;5010616;28;20030;-77
2021/05/16 05:10:50;;;;;;;7.88;2.38;;;;;;;13.16;67.34;93238.91;4993299;28;20481;-77
2021/05/16 05:13:16;;;;;;;5.22;2.65;;;;;;;13.17;66.66;93243.16;4992886;28;20048;-78
2021/05/16 05:15:41;;;;;;;4.30;1.65;;;;;;;13.23;66.97;93243.69;4992876;28;20155;-76
2021/05/16 05:18:07;;;;;;;7.80;2.60;;;;;;;13.25;66.30;93252.16;5010640;28;20093;-76
2021/05/16 05:20:34;;;;;;;9.38;2.80;;;;;;;13.20;65.05;93249.72;4992989;28;20026;-76
2021/05/16 05:23:00;;;;;;;5.63;2.28;;;;;;;13.20;66.74;93249.72;4992897;28;20436;-76
2021/05/16 05:25:28;;;;;;;3.33;1.75;;;;;;;13.24;64.98;93258.59;5010899;28;20092;-77
2021/05/16 05:27:57;;;;;;;3.13;1.75;;;;;;;13.23;65.13;93254.41;5010370;28;20069;-76
2021/05/16 05:30:24;;;;;;;6.35;2.00;;;;;;;13.28;66.17;93256.03;4992748;28;20025;-76
2021/05/16 05:32:50;;;;;;;9.77;2.20;;;;;;;13.19;65.05;93265.00;5010100;28;20260;-77
2021/05/16 05:35:16;;;;;;;6.53;2.47;;;;;;;13.27;65.75;93255.25;4992866;28;20097;-77
2021/05/16 05:37:42;;;;;;;7.57;1.85;;;;;;;13.38;65.27;93266.25;4990040;28;20030;-79
2021/05/16 05:40:09;;;;;;;5.38;3.08;;;;;;;13.41;65.07;93263.66;4992523;28;20026;-77
2021/05/16 05:42:35;;;;;;;8.20;2.70;;;;;;;13.44;65.21;93267.56;4991236;28;20033;-78
2021/05/16 05:45:00;;;;;;;6.75;2.70;;;;;;;13.44;65.63;93273.69;4991675;28;20189;-76
2021/05/16 05:47:26;;;;;;;5.32;1.98;;;;;;;13.51;63.86;93269.63;5008309;28;20034;-80
2021/05/16 05:49:52;;;;;;;6.85;2.22;;;;;;;13.60;64.54;93268.31;4992304;28;20492;-80
2021/05/16 05:52:21;;;;;;;6.03;2.38;;;;;;;13.68;64.36;93266.59;4992406;28;20158;-77
2021/05/16 05:54:47;;;;;;;6.00;2.53;;;;;;;13.73;64.03;93270.91;4976082;28;20412;-77
2021/05/16 05:57:12;;;;;;;6.78;2.10;;;;;;;13.76;65.06;93268.31;4991809;28;20046;-78
2021/05/16 05:59:38;;;;;;;8.10;2.72;;;;;;;13.81;64.58;93278.00;4995714;28;20025;-79
2021/05/16 06:02:03;;;;;;;7.38;2.28;;;;;;;13.82;63.77;93274.19;5013859;28;20026;-78
2021/05/16 06:04:30;;;;;;;9.30;2.33;;;;;;;13.85;64.07;93268.13;4992086;28;20045;-79
2021/05/16 06:06:55;;;;;;;7.03;2.17;;;;;;;13.84;64.45;93277.31;5010126;28;20033;-78
2021/05/16 06:09:21;;;;;;;8.45;1.98;;;;;;;13.82;64.03;93264.25;5010107;28;20116;-77
2021/05/16 06:11:46;;;;;;;10.00;3.13;;;;;;;13.81;63.92;93276.09;4991776;28;20030;-78
2021/05/16 06:14:12;;;;;;;8.05;2.47;;;;;;;13.81;63.42;93268.06;4992019;28;20034;-79
2021/05/16 06:16:37;;;;;;;9.57;2.63;;;;;;;13.91;63.73;93261.38;5008280;28;20050;-79
2021/05/16 06:19:03;;;;;;;13.23;2.30;;;;;;;13.88;63.89;93272.00;4992821;28;20036;-79
2021/05/16 06:21:29;;;;;;;7.88;2.28;;;;;;;13.98;63.95;93274.16;4992163;28;20465;-79
2021/05/16 06:24:09;;;;;;;6.10;2.42;;;;;;;14.01;63.49;93279.59;4992496;28;20018;-79
2021/05/16 06:26:37;;;;;;;11.73;2.42;;;;;;;14.10;63.60;93274.06;4992832;28;20121;-79
2021/05/16 06:29:07;;;;;;;5.93;2.55;;;;;;;14.14;62.79;93272.22;5010121;28;20042;-79
2021/05/16 06:31:33;;;;;;;9.80;2.25;;;;;;;14.24;62.89;93285.09;5008808;28;20026;-79
2021/05/16 06:33:59;;;;;;;7.78;2.55;;;;;;;14.30;61.58;93284.81;5009851;28;20109;-79
2021/05/16 06:36:25;;;;;;;6.22;2.53;;;;;;;14.28;61.13;93274.44;4992328;28;20022;-79
2021/05/16 06:38:51;;;;;;;4.53;2.35;;;;;;;14.20;60.58;93286.91;4991647;28;20092;-76
2021/05/16 06:41:17;;;;;;;10.45;3.25;;;;;;;14.20;61.32;93278.88;4992316;28;20101;-75
2021/05/16 06:43:42;;;;;;;8.57;2.17;;;;;;;14.37;62.45;93279.59;4991981;28;20026;-77
2021/05/16 06:46:08;;;;;;;6.50;2.08;;;;;;;14.44;61.53;93283.22;4991992;28;20168;-76
2021/05/16 06:48:34;;;;;;;6.45;3.05;;;;;;;14.54;61.14;93270.41;4991985;28;20079;-76
2021/05/16 06:51:00;;;;;;;5.15;2.25;;;;;;;14.67;60.66;93271.06;4991592;28;20531;-78
2021/05/16 06:53:25;;;;;;;10.82;2.67;;;;;;;14.70;60.31;93273.06;4991668;28;20022;-77
2021/05/16 06:55:51;;;;;;;8.57;2.40;;;;;;;14.59;57.49;93265.56;4991887;28;20109;-78
2021/05/16 06:58:16;;;;;;;6.88;2.53;;;;;;;14.80;61.13;93261.75;5008625;28;20033;-78
2021/05/16 07:00:42;;;;;;;5.38;1.63;;;;;;;14.94;59.62;93267.41;4992413;28;20421;-78
2021/05/16 07:03:07;;;;;;;6.75;1.90;;;;;;;15.10;58.88;93263.84;4991857;28;20057;-77
2021/05/16 07:05:33;;;;;;;7.90;2.15;;;;;;;15.13;59.30;93263.13;4991321;28;20022;-77
2021/05/16 07:07:58;;;;;;;6.03;1.80;;;;;;;15.30;59.55;93270.72;4992863;28;20117;-77
2021/05/16 07:10:24;;;;;;;6.90;2.55;;;;;;;15.31;58.77;93269.59;4995053;28;20034;-79
2021/05/16 07:12:50;;;;;;;5.97;2.47;;;;;;;15.24;58.36;93270.25;4998207;28;20032;-78
2021/05/16 07:15:16;;;;;;;5.82;2.70;;;;;;;15.17;58.90;93270.13;5020281;28;20104;-79
2021/05/16 07:17:42;;;;;;;8.88;2.45;;;;;;;14.99;59.57;93269.78;4994772;28;20133;-80
2021/05/16 07:20:08;;;;;;;12.00;2.60;;;;;;;15.00;59.41;93271.34;4994971;28;20108;-79
2021/05/16 07:22:33;;;;;;;7.75;2.42;;;;;;;15.07;59.60;93264.56;4994826;28;20481;-79
2021/05/16 07:24:59;;;;;;;10.73;3.10;;;;;;;14.92;59.90;93269.66;4994949;28;20057;-78
2021/05/16 07:27:24;;;;;;;7.60;2.75;;;;;;;14.84;58.87;93258.00;4995113;28;20352;-78
2021/05/16 07:29:50;;;;;;;9.38;2.78;;;;;;;14.90;58.43;93260.38;4994966;28;20088;-74
2021/05/16 07:32:16;;;;;;;3.55;1.90;;;;;;;14.93;59.31;93260.47;4995432;28;20132;-75
2021/05/16 07:34:41;;;;;;;6.15;2.50;;;;;;;14.94;59.77;93256.66;4994979;28;20117;-74
2021/05/16 07:37:07;;;;;;;9.60;2.30;;;;;;;15.02;59.39;93265.59;4994680;28;20033;-75
2021/05/16 07:39:32;;;;;;;8.65;2.50;;;;;;;15.18;59.87;93262.81;4995199;28;20039;-75
2021/05/16 07:41:58;;;;;;;8.13;2.75;;;;;;;15.25;60.15;93252.22;4994783;28;20032;-75
2021/05/16 07:44:23;;;;;;;5.63;2.85;;;;;;;15.46;59.20;93259.88;4994705;28;20032;-75
2021/05/16 07:46:49;;;;;;;5.97;2.90;;;;;;;15.62;59.03;93263.22;4995168;28;20025;-75
2021/05/16 07:49:15;;;;;;;7.95;2.90;;;;;;;15.67;58.93;93264.81;5011371;28;20085;-75
2021/05/16 07:51:41;;;;;;;8.90;2.85;;;;;;;15.80;58.36;93268.91;5009801;28;20027;-75
2021/05/16 07:54:07;;;;;;;7.45;2.75;;;;;;;16.01;58.03;93262.31;4994907;28;20141;-75
2021/05/16 07:56:33;;;;;;;13.45;2.95;;;;;;;16.15;56.87;93264.44;5011968;28;20029;-75
2021/05/16 07:58:58;;;;;;;8.80;2.88;;;;;;;16.32;57.24;93268.50;4994473;28;20033;-75
2021/05/16 08:01:24;;;;;;;6.00;2.97;;;;;;;16.49;56.84;93265.28;4995859;28;20484;-75
2021/05/16 08:03:49;;;;;;;9.68;2.50;;;;;;;16.57;56.06;93266.16;4994189;28;20418;-75
2021/05/16 08:06:15;;;;;;;7.72;2.72;;;;;;;16.70;56.17;93269.38;4994299;28;20083;-75
2021/05/16 08:08:41;;;;;;;15.50;3.10;;;;;;;16.74;55.60;93270.22;4994083;28;20034;-75
2021/05/16 08:11:07;;;;;;;8.30;3.08;;;;;;;16.90;56.48;93268.13;4994190;28;20092;-75
2021/05/16 08:13:32;;;;;;;6.53;2.78;;;;;;;17.09;55.20;93269.09;5011971;28;20032;-75
2021/05/16 08:15:58;;;;;;;11.30;3.20;;;;;;;17.13;54.75;93259.91;4994119;28;20069;-75
2021/05/16 08:18:23;;;;;;;7.80;2.85;;;;;;;17.29;54.84;93259.69;5011778;28;20112;-75
2021/05/16 08:20:49;;;;;;;8.35;3.05;;;;;;;17.37;54.06;93264.00;4993447;28;20025;-75
2021/05/16 08:23:14;;;;;;;7.28;3.38;;;;;;;17.24;54.81;93260.03;4993967;28;20069;-75
2021/05/16 08:25:40;;;;;;;7.25;3.45;;;;;;;17.38;53.62;93262.06;4993812;28;20038;-75
2021/05/16 08:28:06;;;;;;;12.48;3.47;;;;;;;17.35;53.56;93258.22;4993679;28;20030;-75
2021/05/16 08:30:31;;;;;;;13.95;3.38;;;;;;;17.07;53.85;93260.63;4993584;28;20065;-75
2021/05/16 08:32:57;;;;;;;8.85;3.63;;;;;;;16.99;55.71;93263.22;4993494;28;20404;-75
2021/05/16 08:35:23;;;;;;;8.70;4.00;;;;;;;17.07;55.83;93256.00;4993440;28;20405;-75
2021/05/16 08:37:48;;;;;;;6.43;3.20;;;;;;;17.10;55.47;93254.50;5010894;28;20124;-74
2021/05/16 08:40:15;;;;;;;6.53;2.97;;;;;;;17.22;54.04;93255.00;4993446;28;20025;-75
2021/05/16 08:42:41;;;;;;;5.18;2.40;;;;;;;17.41;53.19;93253.28;4994738;28;20059;-75
2021/05/16 08:45:12;;;;;;;4.40;3.13;;;;;;;17.56;53.08;93259.56;4993943;28;20485;-75
2021/05/16 08:47:42;;;;;;;5.78;3.15;;;;;;;17.69;53.05;93260.03;4994029;28;20026;-75
2021/05/16 08:50:11;;;;;;;16.35;3.85;;;;;;;17.61;51.86;93259.22;5010690;28;20038;-75
2021/05/16 08:52:37;;;;;;;11.20;3.20;;;;;;;17.71;52.34;93258.53;4993172;28;20021;-74
2021/05/16 08:55:04;;;;;;;7.25;3.28;;;;;;;17.84;52.85;93259.81;4992801;28;20032;-75
2021/05/16 08:57:29;;;;;;;10.00;3.40;;;;;;;17.96;51.77;93260.69;5010747;28;20084;-76
2021/05/16 09:00:11;;;;;;;8.75;3.00;;;;;;;18.08;51.69;93267.72;5010572;28;20493;-75
2021/05/16 09:02:57;;;;;;;;;;;;;;;18.13;50.72;93260.03;4993182;28;20029;-75
2021/05/16 09:05:28;;;;;;;9.45;4.07;;;;;;;18.28;51.57;93260.91;4986648;28;19913;-75
2021/05/16 09:08:09;;;;;;;8.80;2.50;;;;;;;18.41;49.76;93266.75;5010439;28;20049;-75
2021/05/16 09:10:35;;;;;;;8.02;3.10;;;;;;;18.49;49.37;93265.66;5010439;28;20028;-75
2021/05/16 09:13:18;;;;;;;5.30;2.17;;;;;;;18.48;50.15;93255.22;5010299;28;20025;-75
2021/05/16 09:16:00;;;;;;;7.82;2.50;;;;;;;18.51;49.61;93251.78;4992536;28;20026;-75
2021/05/16 09:18:56;;;;;;;10.13;2.63;;;;;;;18.77;49.52;93258.84;5007738;28;20084;-75
2021/05/16 09:21:31;;;;;;;7.15;2.50;;;;;;;19.01;48.51;93243.91;4992468;28;20022;-75
2021/05/16 09:23:59;;;;;;;8.85;2.88;;;;;;;19.13;48.10;93237.41;5007375;28;20477;-75
2021/05/16 09:26:26;;;;;;;6.28;2.42;;;;;;;19.23;47.47;93248.25;4992669;28;20433;-75
2021/05/16 09:28:53;;;;;;;7.93;2.35;;;;;;;19.36;46.88;93239.78;4992821;28;20037;-75
2021/05/16 09:31:31;;;;;;;5.80;2.58;;;;;;;19.45;46.01;93232.81;4992114;28;20034;-75
2021/05/16 09:34:05;;;;;;;9.27;2.67;;;;;;;19.62;45.91;93230.53;4994149;28;20409;-76
2021/05/16 09:36:34;;;;;;;7.72;2.33;;;;;;;19.73;43.23;93228.63;4990119;28;20033;-75
2021/05/16 09:39:17;;;;;;;8.05;1.95;;;;;;;19.81;43.19;93235.59;4992539;28;20402;-74
2021/05/16 09:41:57;;;;;;;;;;;;;;;19.80;43.42;93235.97;5009246;28;20014;-75
2021/05/16 09:44:46;;;;;;;8.32;1.85;;;;;;;19.76;43.82;93236.00;5008667;28;19967;-75
2021/05/16 09:47:13;;;;;;;11.32;2.13;;;;;;;19.65;44.98;93224.34;4992401;28;20033;-73
2021/05/16 09:49:42;;;;;;;6.43;1.98;;;;;;;19.71;43.81;93224.78;5010595;28;20033;-75
2021/05/16 09:52:18;;;;;;;11.48;2.03;;;;;;;19.80;43.26;93217.84;4992079;28;20132;-72
2021/05/16 09:54:53;;;;;;;5.63;2.13;;;;;;;19.83;43.92;93219.75;5009904;28;20022;-71
2021/05/16 09:57:19;;;;;;;7.38;2.60;;;;;;;19.86;44.58;93212.03;5009816;28;20465;-71
2021/05/16 09:59:45;;;;;;;4.38;2.08;;;;;;;19.95;44.52;93220.53;5009773;28;20033;-71
2021/05/16 10:02:13;;;;;;;5.65;1.95;;;;;;;20.01;41.83;93214.34;5009711;28;20065;-69
2021/05/16 10:04:39;;;;;;;6.35;2.33;;;;;;;20.13;41.56;93210.47;5009160;28;20022;-69
2021/05/16 10:07:07;;;;;;;5.15;1.67;;;;;;;20.19;41.43;93208.09;4991714;28;20018;-69
2021/05/16 10:09:32;;;;;;;5.32;1.70;;;;;;;20.28;41.19;93210.44;5028133;28;20341;-69
2021/05/16 10:11:58;;;;;;;4.50;1.98;;;;;;;20.21;40.72;93206.59;5028671;28;20356;-69
2021/05/16 10:14:28;;;;;;;7.07;2.13;;;;;;;20.10;41.13;93211.22;5028522;28;20029;-69
2021/05/16 10:16:54;;;;;;;5.57;1.90;;;;;;;19.98;41.03;93209.69;5011042;28;20042;-69
2021/05/16 10:19:22;;;;;;;11.50;2.08;;;;;;;19.82;42.55;93201.19;5028879;28;20037;-70
2021/05/16 10:22:06;;;;;;;4.78;2.22;;;;;;;19.76;41.87;93208.16;5028684;28;20388;-69
2021/05/16 10:24:38;;;;;;;4.53;2.03;;;;;;;19.70;42.59;93202.34;5027911;28;20021;-69
2021/05/16 10:27:22;;;;;;;5.78;2.00;;;;;;;19.65;42.67;93200.03;5011035;28;20026;-69
2021/05/16 10:29:50;;;;;;;9.18;2.67;;;;;;;19.70;43.73;93193.47;5029468;28;20522;-69
2021/05/16 10:32:37;;;;;;;7.88;2.42;;;;;;;19.60;42.85;93186.88;5027974;28;20956;-69
2021/05/16 10:35:10;;;;;;;4.65;2.20;;;;;;;19.45;44.01;93189.59;5020236;28;20036;-70
2021/05/16 10:37:45;;;;;;;9.77;2.10;;;;;;;19.19;45.99;93188.03;5009906;28;20180;-70
2021/05/16 10:40:26;;;;;;;5.10;1.83;;;;;;;19.00;46.38;93191.84;4992130;28;20544;-70
2021/05/16 10:43:02;;;;;;;8.00;2.20;;;;;;;18.59;49.47;93194.00;5011432;28;20543;-70
2021/05/16 10:45:34;;;;;;;6.63;2.13;;;;;;;17.92;53.21;93211.38;4995961;28;20033;-70
2021/05/16 10:48:09;;;;;;;4.07;1.90;;;;;;;16.72;55.45;93224.06;4995853;28;20041;-70
2021/05/16 10:50:37;;;;;;;4.55;2.17;;;;;;;16.00;59.42;93239.25;5013380;28;20096;-70
2021/05/16 10:53:05;;;;;;;6.00;1.75;;;;;;;15.32;60.16;93255.03;5013359;28;20408;-69
2021/05/16 10:55:34;;;;;;;4.35;1.60;;;;;;;14.91;64.12;93262.72;4995824;28;20037;-69
2021/05/16 10:58:01;;;;;;;4.45;1.00;;;;;;;14.53;62.61;93255.44;4995633;28;20555;-69
2021/05/16 11:00:30;;;;;;;4.22;1.10;;;;;;;14.14;63.22;93258.81;5013425;28;20026;-69
2021/05/16 11:03:13;;;;;;;6.78;1.40;;;;;;;13.98;62.00;93250.03;4995622;28;20026;-70
2021/05/16 11:08:29;;;;;;;14.63;1.48;;;;;;;13.81;64.75;93237.81;5013483;28;20030;-70
2021/05/16 11:10:56;;;;;;;1.95;1.30;;;;;;;13.90;65.17;93232.25;4983220;28;20555;-69
2021/05/16 11:13:27;;;;;;;3.40;1.10;;;;;;;14.09;63.65;93243.03;4995436;28;20045;-69
2021/05/16 11:15:53;;;;;;;2.38;1.33;;;;;;;14.18;65.06;93246.28;4994958;28;20026;-69
2021/05/16 11:18:22;;;;;;;1.98;0.90;;;;;;;14.24;63.47;93236.84;4995272;28;20091;-69
2021/05/16 11:20:54;;;;;;;3.00;1.20;;;;;;;14.36;63.27;93241.31;4995292;28;20108;-70
2021/05/16 11:23:26;;;;;;;10.73;2.85;;;;;;;14.34;67.17;93274.97;5012741;28;20025;-69
2021/05/16 11:26:02;;;;;;;7.07;2.38;;;;;;;14.40;68.89;93276.25;5009980;28;20113;-70
2021/05/16 11:28:39;;;;;;;5.45;2.60;;;;;;;14.59;68.28;93275.50;5012944;28;20068;-69
2021/05/16 11:31:14;;;;;;;6.18;2.90;;;;;;;14.88;68.54;93271.50;4990569;28;20022;-69
2021/05/16 11:33:41;;;;;;;6.80;2.30;;;;;;;15.21;67.58;93270.94;4995360;28;20034;-69
2021/05/16 11:36:12;;;;;;;4.47;2.28;;;;;;;15.51;66.10;93272.22;5012595;28;20092;-70